This is the latest recevied weather packets stored in our database for station/object KC1TEM-13. If no packets are shown the sender has not sent any weather packets the latest 1 day(s).
| Time | Temp. | Humidity | Pressure | Rain* | Wind** | Luminosity | Snow |
|---|---|---|---|---|---|---|---|
| 1778031079 | 21.11° C | 48% | 1009.4 hPa | 0 mm | - | 0 W/m² | - |
| 1778030776 | 21.11° C | 47% | 1009.5 hPa | 0 mm | - | 0 W/m² | - |
| 1778030472 | 21.11° C | 47% | 1009.5 hPa | 0 mm | - | 0 W/m² | - |
| 1778030170 | 21.11° C | 47% | 1009.5 hPa | 0 mm | - | 0 W/m² | - |
| 1778029866 | 21.11° C | 47% | 1009.3 hPa | 0 mm | - | 0 W/m² | - |
| 1778029566 | 21.67° C | 46% | 1008.8 hPa | 0 mm | - | 0 W/m² | - |
| 1778028655 | 21.67° C | 46% | 1008.4 hPa | 0 mm | - | 0 W/m² | - |
| 1778028049 | 21.67° C | 47% | 1008.1 hPa | 0 mm | - | 0 W/m² | - |
| 1778027442 | 21.67° C | 46% | 1007.8 hPa | 0 mm | - | 0 W/m² | - |
| 1778026530 | 22.22° C | 45% | 1007.5 hPa | 0 mm | - | 0 W/m² | - |
| 1778022294 | 23.89° C | 42% | 1006.1 hPa | 0 mm | - | 27 W/m² | - |
| 1778020170 | 25° C | 38% | 1005.7 hPa | 0 mm | - | 71 W/m² | - |
| 1778017747 | 26.11° C | 35% | 1005 hPa | 0 mm | - | 106 W/m² | - |
| 1778016535 | 27.22° C | 32% | 1004.9 hPa | 0 mm | - | 212 W/m² | - |
| 1778015626 | 28.33° C | 30% | 1005 hPa | 0 mm | - | 260 W/m² | - |
| 1778013506 | 28.33° C | 30% | 1004.6 hPa | 0 mm | - | 202 W/m² | - |
| 1778011989 | 28.33° C | 30% | 1005.1 hPa | 0 mm | - | 479 W/m² | - |
| 1778011384 | 28.89° C | 31% | 1005 hPa | 0 mm | - | 206 W/m² | - |
| 1778011079 | 28.89° C | 32% | 1005.1 hPa | 0 mm | - | 551 W/m² | - |
| 1778009866 | 27.78° C | 33% | 1005.1 hPa | 0 mm | - | 172 W/m² | - |
| 1778009564 | 27.78° C | 32% | 1005.1 hPa | 0 mm | - | 151 W/m² | - |
| 1778007145 | 28.89° C | 29% | 1005.9 hPa | 0 mm | - | 735 W/m² | - |
| 1778006235 | 28.89° C | 30% | 1005.9 hPa | 0 mm | - | 716 W/m² | - |
| 1778005933 | 28.89° C | 33% | 1006 hPa | 0 mm | - | 778 W/m² | - |
| 1778005326 | 28.89° C | 32% | 1006.2 hPa | 0 mm | - | 779 W/m² | - |
* Rain latest hour (hover to see other rain measurements)
** Current wind speed in m/s (hover to see current wind gust speed)